sensor_id;sensor_type;location;lat;lon;timestamp;P1;durP1;ratioP1;P2;durP2;ratioP2
13439;SDS011;6792;57.698;11.946;2022-08-23T00:02:10;2.60;;;1.90;;
13439;SDS011;6792;57.698;11.946;2022-08-23T00:04:40;4.72;;;1.65;;
13439;SDS011;6792;57.698;11.946;2022-08-23T00:07:12;3.80;;;1.52;;
13439;SDS011;6792;57.698;11.946;2022-08-23T00:09:42;3.12;;;1.77;;
13439;SDS011;6792;57.698;11.946;2022-08-23T00:12:13;3.65;;;1.50;;
13439;SDS011;6792;57.698;11.946;2022-08-23T00:14:43;6.08;;;1.45;;
13439;SDS011;6792;57.698;11.946;2022-08-23T00:17:14;4.85;;;1.60;;
13439;SDS011;6792;57.698;11.946;2022-08-23T00:19:43;4.70;;;1.55;;
13439;SDS011;6792;57.698;11.946;2022-08-23T00:22:13;5.45;;;1.62;;
13439;SDS011;6792;57.698;11.946;2022-08-23T00:24:42;6.70;;;1.60;;
13439;SDS011;6792;57.698;11.946;2022-08-23T00:27:12;4.28;;;1.55;;
13439;SDS011;6792;57.698;11.946;2022-08-23T00:29:43;1.67;;;1.57;;
13439;SDS011;6792;57.698;11.946;2022-08-23T00:32:15;6.40;;;1.60;;
13439;SDS011;6792;57.698;11.946;2022-08-23T00:34:46;6.30;;;1.42;;
13439;SDS011;6792;57.698;11.946;2022-08-23T00:37:16;3.22;;;1.55;;
13439;SDS011;6792;57.698;11.946;2022-08-23T00:39:46;6.00;;;1.72;;
13439;SDS011;6792;57.698;11.946;2022-08-23T00:42:32;3.10;;;1.40;;
13439;SDS011;6792;57.698;11.946;2022-08-23T00:45:09;3.33;;;1.52;;
13439;SDS011;6792;57.698;11.946;2022-08-23T00:47:59;2.42;;;1.40;;
13439;SDS011;6792;57.698;11.946;2022-08-23T00:50:30;4.30;;;1.70;;
13439;SDS011;6792;57.698;11.946;2022-08-23T00:53:02;4.58;;;1.57;;
13439;SDS011;6792;57.698;11.946;2022-08-23T00:55:33;6.05;;;1.70;;
13439;SDS011;6792;57.698;11.946;2022-08-23T00:58:03;3.42;;;1.75;;
13439;SDS011;6792;57.698;11.946;2022-08-23T01:00:32;7.12;;;1.60;;
13439;SDS011;6792;57.698;11.946;2022-08-23T01:03:02;3.55;;;1.70;;
13439;SDS011;6792;57.698;11.946;2022-08-23T01:05:35;3.67;;;1.50;;
13439;SDS011;6792;57.698;11.946;2022-08-23T01:08:06;14.53;;;2.30;;
13439;SDS011;6792;57.698;11.946;2022-08-23T01:10:36;4.15;;;1.50;;
13439;SDS011;6792;57.698;11.946;2022-08-23T01:13:15;3.77;;;1.67;;
13439;SDS011;6792;57.698;11.946;2022-08-23T01:15:41;4.40;;;1.30;;
13439;SDS011;6792;57.698;11.946;2022-08-23T01:18:13;2.27;;;1.50;;
13439;SDS011;6792;57.698;11.946;2022-08-23T01:20:47;3.50;;;1.52;;
13439;SDS011;6792;57.698;11.946;2022-08-23T01:23:28;2.42;;;1.30;;
13439;SDS011;6792;57.698;11.946;2022-08-23T01:26:00;3.27;;;1.57;;
13439;SDS011;6792;57.698;11.946;2022-08-23T01:28:30;4.28;;;1.52;;
13439;SDS011;6792;57.698;11.946;2022-08-23T01:30:59;3.05;;;1.50;;
13439;SDS011;6792;57.698;11.946;2022-08-23T01:33:29;1.90;;;1.27;;
13439;SDS011;6792;57.698;11.946;2022-08-23T01:35:59;4.40;;;1.70;;
13439;SDS011;6792;57.698;11.946;2022-08-23T01:38:29;2.98;;;1.40;;
13439;SDS011;6792;57.698;11.946;2022-08-23T01:40:58;3.47;;;1.70;;
13439;SDS011;6792;57.698;11.946;2022-08-23T01:43:27;3.90;;;1.70;;
13439;SDS011;6792;57.698;11.946;2022-08-23T01:45:56;6.90;;;1.95;;
13439;SDS011;6792;57.698;11.946;2022-08-23T01:48:27;4.83;;;2.45;;
13439;SDS011;6792;57.698;11.946;2022-08-23T01:50:56;5.42;;;2.05;;
13439;SDS011;6792;57.698;11.946;2022-08-23T01:53:25;1.90;;;1.70;;
13439;SDS011;6792;57.698;11.946;2022-08-23T01:55:54;3.72;;;1.92;;
13439;SDS011;6792;57.698;11.946;2022-08-23T01:58:23;4.42;;;1.98;;
13439;SDS011;6792;57.698;11.946;2022-08-23T02:00:53;3.00;;;1.80;;
13439;SDS011;6792;57.698;11.946;2022-08-23T02:03:23;6.97;;;2.08;;
13439;SDS011;6792;57.698;11.946;2022-08-23T02:05:53;3.22;;;1.47;;
13439;SDS011;6792;57.698;11.946;2022-08-23T02:08:23;5.92;;;1.98;;
13439;SDS011;6792;57.698;11.946;2022-08-23T02:11:11;6.15;;;1.70;;
13439;SDS011;6792;57.698;11.946;2022-08-23T02:13:41;3.90;;;1.70;;
13439;SDS011;6792;57.698;11.946;2022-08-23T02:16:11;4.35;;;1.60;;
13439;SDS011;6792;57.698;11.946;2022-08-23T02:18:41;3.67;;;1.70;;
13439;SDS011;6792;57.698;11.946;2022-08-23T02:21:10;4.70;;;1.80;;
13439;SDS011;6792;57.698;11.946;2022-08-23T02:23:39;4.35;;;1.87;;
13439;SDS011;6792;57.698;11.946;2022-08-23T02:26:08;3.42;;;1.75;;
13439;SDS011;6792;57.698;11.946;2022-08-23T02:28:37;4.47;;;2.08;;
13439;SDS011;6792;57.698;11.946;2022-08-23T02:31:07;3.27;;;2.00;;
13439;SDS011;6792;57.698;11.946;2022-08-23T02:33:36;1.90;;;1.40;;
13439;SDS011;6792;57.698;11.946;2022-08-23T02:36:05;5.60;;;1.50;;
13439;SDS011;6792;57.698;11.946;2022-08-23T02:38:35;3.92;;;1.37;;
13439;SDS011;6792;57.698;11.946;2022-08-23T02:41:04;4.25;;;1.55;;
13439;SDS011;6792;57.698;11.946;2022-08-23T02:43:33;3.77;;;1.98;;
13439;SDS011;6792;57.698;11.946;2022-08-23T02:46:03;1.27;;;1.10;;
13439;SDS011;6792;57.698;11.946;2022-08-23T02:48:32;3.30;;;1.40;;
13439;SDS011;6792;57.698;11.946;2022-08-23T02:51:05;4.03;;;1.67;;
13439;SDS011;6792;57.698;11.946;2022-08-23T02:53:35;2.30;;;1.22;;
13439;SDS011;6792;57.698;11.946;2022-08-23T02:56:04;3.08;;;1.52;;
13439;SDS011;6792;57.698;11.946;2022-08-23T02:58:33;3.52;;;1.40;;
13439;SDS011;6792;57.698;11.946;2022-08-23T03:01:03;5.70;;;1.60;;
13439;SDS011;6792;57.698;11.946;2022-08-23T03:03:32;2.42;;;1.42;;
13439;SDS011;6792;57.698;11.946;2022-08-23T03:06:01;3.15;;;1.60;;
13439;SDS011;6792;57.698;11.946;2022-08-23T03:08:31;4.50;;;1.30;;
13439;SDS011;6792;57.698;11.946;2022-08-23T03:11:00;3.58;;;1.20;;
13439;SDS011;6792;57.698;11.946;2022-08-23T03:13:29;3.22;;;1.27;;
13439;SDS011;6792;57.698;11.946;2022-08-23T03:15:58;3.80;;;1.40;;
13439;SDS011;6792;57.698;11.946;2022-08-23T03:18:29;2.02;;;1.37;;
13439;SDS011;6792;57.698;11.946;2022-08-23T03:20:58;2.08;;;1.35;;
13439;SDS011;6792;57.698;11.946;2022-08-23T03:23:27;3.37;;;1.30;;
13439;SDS011;6792;57.698;11.946;2022-08-23T03:25:58;2.67;;;1.42;;
13439;SDS011;6792;57.698;11.946;2022-08-23T03:28:29;2.62;;;1.40;;
13439;SDS011;6792;57.698;11.946;2022-08-23T03:31:00;3.12;;;1.40;;
13439;SDS011;6792;57.698;11.946;2022-08-23T03:33:29;2.17;;;1.20;;
13439;SDS011;6792;57.698;11.946;2022-08-23T03:35:58;1.60;;;1.30;;
13439;SDS011;6792;57.698;11.946;2022-08-23T03:38:28;5.80;;;1.35;;
13439;SDS011;6792;57.698;11.946;2022-08-23T03:40:58;4.00;;;1.35;;
13439;SDS011;6792;57.698;11.946;2022-08-23T03:43:28;2.27;;;1.50;;
13439;SDS011;6792;57.698;11.946;2022-08-23T03:45:57;3.60;;;1.42;;
13439;SDS011;6792;57.698;11.946;2022-08-23T03:48:26;4.15;;;1.37;;
13439;SDS011;6792;57.698;11.946;2022-08-23T03:50:55;2.08;;;1.22;;
13439;SDS011;6792;57.698;11.946;2022-08-23T03:53:24;3.92;;;1.70;;
13439;SDS011;6792;57.698;11.946;2022-08-23T03:55:53;2.58;;;1.40;;
13439;SDS011;6792;57.698;11.946;2022-08-23T03:58:23;2.05;;;1.20;;
13439;SDS011;6792;57.698;11.946;2022-08-23T04:00:53;3.67;;;1.40;;
13439;SDS011;6792;57.698;11.946;2022-08-23T04:03:23;2.15;;;1.57;;
13439;SDS011;6792;57.698;11.946;2022-08-23T04:05:52;2.55;;;1.20;;
13439;SDS011;6792;57.698;11.946;2022-08-23T04:08:21;6.45;;;1.65;;
13439;SDS011;6792;57.698;11.946;2022-08-23T04:10:51;2.83;;;1.40;;
13439;SDS011;6792;57.698;11.946;2022-08-23T04:13:20;5.37;;;1.40;;
13439;SDS011;6792;57.698;11.946;2022-08-23T04:15:51;2.30;;;1.27;;
13439;SDS011;6792;57.698;11.946;2022-08-23T04:18:21;3.52;;;1.40;;
13439;SDS011;6792;57.698;11.946;2022-08-23T04:20:50;2.47;;;1.32;;
13439;SDS011;6792;57.698;11.946;2022-08-23T04:23:19;2.75;;;1.40;;
13439;SDS011;6792;57.698;11.946;2022-08-23T04:25:48;3.62;;;1.70;;
13439;SDS011;6792;57.698;11.946;2022-08-23T04:28:17;2.92;;;1.60;;
13439;SDS011;6792;57.698;11.946;2022-08-23T04:30:46;2.80;;;1.40;;
13439;SDS011;6792;57.698;11.946;2022-08-23T04:33:16;6.60;;;1.50;;
13439;SDS011;6792;57.698;11.946;2022-08-23T04:35:45;5.45;;;1.50;;
13439;SDS011;6792;57.698;11.946;2022-08-23T04:38:14;3.92;;;1.30;;
13439;SDS011;6792;57.698;11.946;2022-08-23T04:40:43;5.95;;;1.62;;
13439;SDS011;6792;57.698;11.946;2022-08-23T04:43:29;2.50;;;1.30;;
13439;SDS011;6792;57.698;11.946;2022-08-23T04:45:59;2.70;;;1.52;;
13439;SDS011;6792;57.698;11.946;2022-08-23T04:48:28;3.27;;;1.52;;
13439;SDS011;6792;57.698;11.946;2022-08-23T04:50:57;5.37;;;1.50;;
13439;SDS011;6792;57.698;11.946;2022-08-23T04:53:26;3.05;;;1.25;;
13439;SDS011;6792;57.698;11.946;2022-08-23T04:55:55;7.60;;;2.22;;
13439;SDS011;6792;57.698;11.946;2022-08-23T04:58:24;3.25;;;1.92;;
13439;SDS011;6792;57.698;11.946;2022-08-23T05:00:53;2.37;;;1.40;;
13439;SDS011;6792;57.698;11.946;2022-08-23T05:03:24;4.28;;;1.60;;
13439;SDS011;6792;57.698;11.946;2022-08-23T05:05:55;3.20;;;1.50;;
13439;SDS011;6792;57.698;11.946;2022-08-23T05:08:24;4.05;;;1.52;;
13439;SDS011;6792;57.698;11.946;2022-08-23T05:10:54;4.45;;;1.70;;
13439;SDS011;6792;57.698;11.946;2022-08-23T05:13:25;3.95;;;1.50;;
13439;SDS011;6792;57.698;11.946;2022-08-23T05:15:54;2.35;;;1.90;;
13439;SDS011;6792;57.698;11.946;2022-08-23T05:18:23;6.22;;;1.50;;
13439;SDS011;6792;57.698;11.946;2022-08-23T05:20:53;1.90;;;1.50;;
13439;SDS011;6792;57.698;11.946;2022-08-23T05:23:22;5.37;;;2.35;;
13439;SDS011;6792;57.698;11.946;2022-08-23T05:25:53;3.65;;;1.47;;
13439;SDS011;6792;57.698;11.946;2022-08-23T05:28:24;5.15;;;2.60;;
13439;SDS011;6792;57.698;11.946;2022-08-23T05:30:56;3.33;;;1.57;;
13439;SDS011;6792;57.698;11.946;2022-08-23T05:33:27;5.00;;;1.80;;
13439;SDS011;6792;57.698;11.946;2022-08-23T05:35:57;2.85;;;1.80;;
13439;SDS011;6792;57.698;11.946;2022-08-23T05:38:27;5.72;;;2.00;;
13439;SDS011;6792;57.698;11.946;2022-08-23T05:40:57;6.62;;;2.10;;
13439;SDS011;6792;57.698;11.946;2022-08-23T05:43:28;6.78;;;2.20;;
13439;SDS011;6792;57.698;11.946;2022-08-23T05:46:02;5.12;;;1.98;;
13439;SDS011;6792;57.698;11.946;2022-08-23T05:48:33;3.52;;;1.67;;
13439;SDS011;6792;57.698;11.946;2022-08-23T05:51:09;6.20;;;2.20;;
13439;SDS011;6792;57.698;11.946;2022-08-23T05:53:40;8.33;;;2.22;;
13439;SDS011;6792;57.698;11.946;2022-08-23T05:56:14;8.83;;;2.60;;
13439;SDS011;6792;57.698;11.946;2022-08-23T05:58:45;5.35;;;1.98;;
13439;SDS011;6792;57.698;11.946;2022-08-23T06:01:26;5.53;;;1.77;;
13439;SDS011;6792;57.698;11.946;2022-08-23T06:03:58;3.90;;;1.65;;
13439;SDS011;6792;57.698;11.946;2022-08-23T06:06:27;2.60;;;1.70;;
13439;SDS011;6792;57.698;11.946;2022-08-23T06:08:56;4.60;;;1.70;;
13439;SDS011;6792;57.698;11.946;2022-08-23T06:11:27;7.20;;;1.87;;
13439;SDS011;6792;57.698;11.946;2022-08-23T06:13:57;9.13;;;1.62;;
13439;SDS011;6792;57.698;11.946;2022-08-23T06:16:29;7.53;;;2.02;;
13439;SDS011;6792;57.698;11.946;2022-08-23T06:18:59;2.80;;;1.60;;
13439;SDS011;6792;57.698;11.946;2022-08-23T06:21:30;5.60;;;1.50;;
13439;SDS011;6792;57.698;11.946;2022-08-23T06:24:00;5.00;;;1.57;;
13439;SDS011;6792;57.698;11.946;2022-08-23T06:26:30;3.58;;;1.82;;
13439;SDS011;6792;57.698;11.946;2022-08-23T06:29:01;5.53;;;1.40;;
13439;SDS011;6792;57.698;11.946;2022-08-23T06:31:31;5.75;;;1.40;;
13439;SDS011;6792;57.698;11.946;2022-08-23T06:34:14;3.50;;;1.40;;
13439;SDS011;6792;57.698;11.946;2022-08-23T06:36:47;2.33;;;1.80;;
13439;SDS011;6792;57.698;11.946;2022-08-23T06:39:19;10.70;;;2.12;;
13439;SDS011;6792;57.698;11.946;2022-08-23T06:41:49;11.30;;;2.17;;
13439;SDS011;6792;57.698;11.946;2022-08-23T06:44:19;3.30;;;1.80;;
13439;SDS011;6792;57.698;11.946;2022-08-23T06:46:48;3.50;;;1.52;;
13439;SDS011;6792;57.698;11.946;2022-08-23T06:49:17;5.97;;;1.75;;
13439;SDS011;6792;57.698;11.946;2022-08-23T06:51:48;4.85;;;1.87;;
13439;SDS011;6792;57.698;11.946;2022-08-23T06:54:20;7.65;;;2.08;;
13439;SDS011;6792;57.698;11.946;2022-08-23T06:56:49;5.45;;;1.92;;
13439;SDS011;6792;57.698;11.946;2022-08-23T06:59:19;5.67;;;1.77;;
13439;SDS011;6792;57.698;11.946;2022-08-23T07:01:55;8.13;;;1.65;;
13439;SDS011;6792;57.698;11.946;2022-08-23T07:04:26;4.20;;;1.50;;
13439;SDS011;6792;57.698;11.946;2022-08-23T07:06:57;4.53;;;1.77;;
13439;SDS011;6792;57.698;11.946;2022-08-23T07:09:29;7.00;;;1.50;;
13439;SDS011;6792;57.698;11.946;2022-08-23T07:11:58;7.08;;;1.92;;
13439;SDS011;6792;57.698;11.946;2022-08-23T07:14:28;3.72;;;1.30;;
13439;SDS011;6792;57.698;11.946;2022-08-23T07:16:58;3.58;;;1.20;;
13439;SDS011;6792;57.698;11.946;2022-08-23T07:19:29;3.35;;;1.30;;
13439;SDS011;6792;57.698;11.946;2022-08-23T07:22:00;4.62;;;1.30;;
13439;SDS011;6792;57.698;11.946;2022-08-23T07:24:30;4.00;;;1.30;;
13439;SDS011;6792;57.698;11.946;2022-08-23T07:27:00;1.42;;;1.00;;
13439;SDS011;6792;57.698;11.946;2022-08-23T07:29:31;7.50;;;1.27;;
13439;SDS011;6792;57.698;11.946;2022-08-23T07:32:02;4.42;;;1.40;;
13439;SDS011;6792;57.698;11.946;2022-08-23T07:34:31;7.95;;;1.50;;
13439;SDS011;6792;57.698;11.946;2022-08-23T07:37:01;9.00;;;1.52;;
13439;SDS011;6792;57.698;11.946;2022-08-23T07:39:31;11.88;;;1.75;;
13439;SDS011;6792;57.698;11.946;2022-08-23T07:42:01;4.53;;;1.15;;
13439;SDS011;6792;57.698;11.946;2022-08-23T07:44:30;6.83;;;1.30;;
13439;SDS011;6792;57.698;11.946;2022-08-23T07:47:00;3.30;;;0.90;;
13439;SDS011;6792;57.698;11.946;2022-08-23T07:49:29;5.50;;;1.10;;
13439;SDS011;6792;57.698;11.946;2022-08-23T07:51:58;1.30;;;0.82;;
13439;SDS011;6792;57.698;11.946;2022-08-23T07:54:27;3.35;;;1.00;;
13439;SDS011;6792;57.698;11.946;2022-08-23T07:56:56;3.62;;;1.10;;
13439;SDS011;6792;57.698;11.946;2022-08-23T07:59:25;3.62;;;1.00;;
13439;SDS011;6792;57.698;11.946;2022-08-23T08:01:55;2.35;;;1.20;;
13439;SDS011;6792;57.698;11.946;2022-08-23T08:04:23;4.28;;;1.10;;
13439;SDS011;6792;57.698;11.946;2022-08-23T08:06:54;3.42;;;1.22;;
13439;SDS011;6792;57.698;11.946;2022-08-23T08:09:24;1.42;;;1.10;;
13439;SDS011;6792;57.698;11.946;2022-08-23T08:11:55;2.12;;;1.35;;
13439;SDS011;6792;57.698;11.946;2022-08-23T08:14:24;5.72;;;1.32;;
13439;SDS011;6792;57.698;11.946;2022-08-23T08:16:52;2.62;;;0.90;;
13439;SDS011;6792;57.698;11.946;2022-08-23T08:19:23;5.75;;;1.10;;
13439;SDS011;6792;57.698;11.946;2022-08-23T08:21:52;3.75;;;0.90;;
13439;SDS011;6792;57.698;11.946;2022-08-23T08:24:21;2.80;;;0.90;;
13439;SDS011;6792;57.698;11.946;2022-08-23T08:26:50;2.77;;;1.00;;
13439;SDS011;6792;57.698;11.946;2022-08-23T08:29:19;1.10;;;0.82;;
13439;SDS011;6792;57.698;11.946;2022-08-23T08:31:48;5.20;;;1.20;;
13439;SDS011;6792;57.698;11.946;2022-08-23T08:34:17;2.87;;;0.80;;
13439;SDS011;6792;57.698;11.946;2022-08-23T08:36:47;1.77;;;0.90;;
13439;SDS011;6792;57.698;11.946;2022-08-23T08:39:20;2.62;;;0.88;;
13439;SDS011;6792;57.698;11.946;2022-08-23T08:41:54;3.77;;;0.80;;
13439;SDS011;6792;57.698;11.946;2022-08-23T08:44:34;1.62;;;0.60;;
13439;SDS011;6792;57.698;11.946;2022-08-23T08:47:07;3.95;;;0.90;;
13439;SDS011;6792;57.698;11.946;2022-08-23T08:49:41;2.27;;;0.80;;
13439;SDS011;6792;57.698;11.946;2022-08-23T08:52:21;3.90;;;0.90;;
13439;SDS011;6792;57.698;11.946;2022-08-23T08:54:53;2.40;;;0.70;;
13439;SDS011;6792;57.698;11.946;2022-08-23T08:57:23;2.12;;;1.07;;
13439;SDS011;6792;57.698;11.946;2022-08-23T08:59:54;1.20;;;0.70;;
13439;SDS011;6792;57.698;11.946;2022-08-23T09:02:28;1.82;;;0.78;;
13439;SDS011;6792;57.698;11.946;2022-08-23T09:05:00;1.65;;;0.72;;
13439;SDS011;6792;57.698;11.946;2022-08-23T09:07:32;4.72;;;1.32;;
13439;SDS011;6792;57.698;11.946;2022-08-23T09:10:09;5.85;;;1.32;;
13439;SDS011;6792;57.698;11.946;2022-08-23T09:12:46;4.53;;;1.37;;
13439;SDS011;6792;57.698;11.946;2022-08-23T09:15:21;3.60;;;1.05;;
13439;SDS011;6792;57.698;11.946;2022-08-23T09:17:55;3.50;;;1.00;;
13439;SDS011;6792;57.698;11.946;2022-08-23T09:20:27;2.40;;;1.00;;
13439;SDS011;6792;57.698;11.946;2022-08-23T09:22:59;2.22;;;0.95;;
13439;SDS011;6792;57.698;11.946;2022-08-23T09:25:32;4.37;;;0.90;;
13439;SDS011;6792;57.698;11.946;2022-08-23T09:28:01;5.12;;;0.75;;
13439;SDS011;6792;57.698;11.946;2022-08-23T09:30:51;7.72;;;1.10;;
13439;SDS011;6792;57.698;11.946;2022-08-23T09:33:22;2.40;;;0.78;;
13439;SDS011;6792;57.698;11.946;2022-08-23T09:36:03;4.28;;;1.10;;
13439;SDS011;6792;57.698;11.946;2022-08-23T09:38:34;8.20;;;0.95;;
13439;SDS011;6792;57.698;11.946;2022-08-23T09:41:03;3.80;;;0.65;;
13439;SDS011;6792;57.698;11.946;2022-08-23T09:43:43;4.15;;;0.90;;
13439;SDS011;6792;57.698;11.946;2022-08-23T09:46:16;5.78;;;0.72;;
13439;SDS011;6792;57.698;11.946;2022-08-23T09:48:51;2.12;;;0.82;;
13439;SDS011;6792;57.698;11.946;2022-08-23T09:51:23;1.17;;;0.90;;
13439;SDS011;6792;57.698;11.946;2022-08-23T09:54:02;2.95;;;0.82;;
13439;SDS011;6792;57.698;11.946;2022-08-23T09:56:36;3.33;;;0.62;;
13439;SDS011;6792;57.698;11.946;2022-08-23T10:02:00;5.17;;;0.72;;
13439;SDS011;6792;57.698;11.946;2022-08-23T10:04:37;6.28;;;1.42;;
13439;SDS011;6792;57.698;11.946;2022-08-23T10:07:20;6.15;;;1.17;;
13439;SDS011;6792;57.698;11.946;2022-08-23T10:09:52;5.47;;;1.05;;
13439;SDS011;6792;57.698;11.946;2022-08-23T10:12:21;3.08;;;0.68;;
13439;SDS011;6792;57.698;11.946;2022-08-23T10:14:50;5.10;;;1.00;;
13439;SDS011;6792;57.698;11.946;2022-08-23T10:17:23;3.15;;;0.70;;
13439;SDS011;6792;57.698;11.946;2022-08-23T10:19:57;2.90;;;0.57;;
13439;SDS011;6792;57.698;11.946;2022-08-23T10:22:31;1.57;;;0.88;;
13439;SDS011;6792;57.698;11.946;2022-08-23T10:25:02;2.95;;;0.60;;
13439;SDS011;6792;57.698;11.946;2022-08-23T10:27:43;4.55;;;0.90;;
13439;SDS011;6792;57.698;11.946;2022-08-23T10:30:25;3.50;;;1.00;;
13439;SDS011;6792;57.698;11.946;2022-08-23T10:32:57;3.47;;;0.82;;
13439;SDS011;6792;57.698;11.946;2022-08-23T10:35:33;2.98;;;0.80;;
13439;SDS011;6792;57.698;11.946;2022-08-23T10:38:10;1.02;;;0.60;;
13439;SDS011;6792;57.698;11.946;2022-08-23T10:41:12;1.17;;;0.82;;
13439;SDS011;6792;57.698;11.946;2022-08-23T10:44:01;2.25;;;0.80;;
13439;SDS011;6792;57.698;11.946;2022-08-23T10:46:36;36.70;;;1.80;;
13439;SDS011;6792;57.698;11.946;2022-08-23T10:49:06;4.45;;;1.07;;
13439;SDS011;6792;57.698;11.946;2022-08-23T10:51:38;4.20;;;0.90;;
13439;SDS011;6792;57.698;11.946;2022-08-23T10:54:09;2.58;;;1.12;;
13439;SDS011;6792;57.698;11.946;2022-08-23T10:56:41;1.77;;;0.65;;
13439;SDS011;6792;57.698;11.946;2022-08-23T10:59:12;2.35;;;0.85;;
13439;SDS011;6792;57.698;11.946;2022-08-23T11:01:48;3.47;;;0.90;;
13439;SDS011;6792;57.698;11.946;2022-08-23T11:04:20;4.55;;;0.70;;
13439;SDS011;6792;57.698;11.946;2022-08-23T11:06:52;1.15;;;0.60;;
13439;SDS011;6792;57.698;11.946;2022-08-23T11:12:30;2.17;;;0.80;;
13439;SDS011;6792;57.698;11.946;2022-08-23T11:15:12;5.58;;;0.90;;
13439;SDS011;6792;57.698;11.946;2022-08-23T11:18:02;2.35;;;0.70;;
13439;SDS011;6792;57.698;11.946;2022-08-23T11:23:40;3.70;;;0.82;;
13439;SDS011;6792;57.698;11.946;2022-08-23T11:26:58;2.60;;;0.70;;
13439;SDS011;6792;57.698;11.946;2022-08-23T11:29:24;4.15;;;1.20;;
13439;SDS011;6792;57.698;11.946;2022-08-23T11:31:58;1.77;;;0.80;;
13439;SDS011;6792;57.698;11.946;2022-08-23T11:34:33;7.78;;;0.98;;
13439;SDS011;6792;57.698;11.946;2022-08-23T11:37:25;3.02;;;1.17;;
13439;SDS011;6792;57.698;11.946;2022-08-23T11:40:01;3.85;;;0.75;;
13439;SDS011;6792;57.698;11.946;2022-08-23T11:42:45;1.50;;;1.05;;
13439;SDS011;6792;57.698;11.946;2022-08-23T11:45:24;1.27;;;0.60;;
13439;SDS011;6792;57.698;11.946;2022-08-23T11:48:10;1.52;;;0.80;;
13439;SDS011;6792;57.698;11.946;2022-08-23T11:50:56;2.15;;;0.80;;
13439;SDS011;6792;57.698;11.946;2022-08-23T11:53:35;3.42;;;1.05;;
13439;SDS011;6792;57.698;11.946;2022-08-23T11:56:31;2.50;;;0.82;;
13439;SDS011;6792;57.698;11.946;2022-08-23T11:59:13;5.30;;;1.20;;
13439;SDS011;6792;57.698;11.946;2022-08-23T12:01:46;3.00;;;0.80;;
13439;SDS011;6792;57.698;11.946;2022-08-23T12:04:26;2.92;;;1.00;;
13439;SDS011;6792;57.698;11.946;2022-08-23T12:07:00;3.77;;;0.90;;
13439;SDS011;6792;57.698;11.946;2022-08-23T12:09:52;2.25;;;1.05;;
13439;SDS011;6792;57.698;11.946;2022-08-23T12:12:32;2.95;;;0.90;;
13439;SDS011;6792;57.698;11.946;2022-08-23T12:15:04;1.45;;;0.80;;
13439;SDS011;6792;57.698;11.946;2022-08-23T12:20:39;2.42;;;0.98;;
13439;SDS011;6792;57.698;11.946;2022-08-23T12:23:14;3.72;;;1.02;;
13439;SDS011;6792;57.698;11.946;2022-08-23T12:25:45;1.90;;;0.93;;
13439;SDS011;6792;57.698;11.946;2022-08-23T12:28:35;4.72;;;1.00;;
13439;SDS011;6792;57.698;11.946;2022-08-23T12:31:16;1.07;;;0.93;;
13439;SDS011;6792;57.698;11.946;2022-08-23T12:33:51;1.60;;;0.70;;
13439;SDS011;6792;57.698;11.946;2022-08-23T12:36:29;2.30;;;1.00;;
13439;SDS011;6792;57.698;11.946;2022-08-23T12:39:00;1.98;;;0.93;;
13439;SDS011;6792;57.698;11.946;2022-08-23T12:41:31;4.20;;;1.02;;
13439;SDS011;6792;57.698;11.946;2022-08-23T12:44:03;2.55;;;0.70;;
13439;SDS011;6792;57.698;11.946;2022-08-23T12:46:36;1.85;;;0.98;;
13439;SDS011;6792;57.698;11.946;2022-08-23T12:49:07;3.12;;;1.07;;
13439;SDS011;6792;57.698;11.946;2022-08-23T12:51:42;1.77;;;0.80;;
13439;SDS011;6792;57.698;11.946;2022-08-23T12:54:16;4.25;;;0.88;;
13439;SDS011;6792;57.698;11.946;2022-08-23T12:56:48;1.77;;;0.85;;
13439;SDS011;6792;57.698;11.946;2022-08-23T12:59:35;1.75;;;0.72;;
13439;SDS011;6792;57.698;11.946;2022-08-23T13:02:09;1.95;;;0.90;;
13439;SDS011;6792;57.698;11.946;2022-08-23T13:04:39;3.47;;;0.70;;
13439;SDS011;6792;57.698;11.946;2022-08-23T13:07:09;3.50;;;0.85;;
13439;SDS011;6792;57.698;11.946;2022-08-23T13:09:41;1.60;;;1.00;;
13439;SDS011;6792;57.698;11.946;2022-08-23T13:12:11;2.02;;;0.70;;
13439;SDS011;6792;57.698;11.946;2022-08-23T13:14:42;2.20;;;1.00;;
13439;SDS011;6792;57.698;11.946;2022-08-23T13:17:15;2.35;;;0.80;;
13439;SDS011;6792;57.698;11.946;2022-08-23T13:19:47;1.32;;;0.80;;
13439;SDS011;6792;57.698;11.946;2022-08-23T13:22:22;1.70;;;0.72;;
13439;SDS011;6792;57.698;11.946;2022-08-23T13:25:03;2.15;;;0.90;;
13439;SDS011;6792;57.698;11.946;2022-08-23T13:27:34;3.83;;;0.90;;
13439;SDS011;6792;57.698;11.946;2022-08-23T13:30:18;2.83;;;0.93;;
13439;SDS011;6792;57.698;11.946;2022-08-23T13:32:49;1.85;;;0.95;;
13439;SDS011;6792;57.698;11.946;2022-08-23T13:35:38;2.95;;;0.98;;
13439;SDS011;6792;57.698;11.946;2022-08-23T13:38:10;2.25;;;1.10;;
13439;SDS011;6792;57.698;11.946;2022-08-23T13:40:44;4.10;;;1.00;;
13439;SDS011;6792;57.698;11.946;2022-08-23T13:43:18;1.07;;;0.98;;
13439;SDS011;6792;57.698;11.946;2022-08-23T13:45:48;4.47;;;1.00;;
13439;SDS011;6792;57.698;11.946;2022-08-23T13:48:19;3.37;;;1.22;;
13439;SDS011;6792;57.698;11.946;2022-08-23T13:50:50;3.75;;;1.05;;
13439;SDS011;6792;57.698;11.946;2022-08-23T13:53:19;3.50;;;1.20;;
13439;SDS011;6792;57.698;11.946;2022-08-23T13:55:50;3.17;;;0.98;;
13439;SDS011;6792;57.698;11.946;2022-08-23T13:58:24;1.75;;;0.80;;
13439;SDS011;6792;57.698;11.946;2022-08-23T14:00:55;1.90;;;0.93;;
13439;SDS011;6792;57.698;11.946;2022-08-23T14:03:25;1.50;;;0.95;;
13439;SDS011;6792;57.698;11.946;2022-08-23T14:05:56;1.52;;;0.88;;
13439;SDS011;6792;57.698;11.946;2022-08-23T14:08:25;3.27;;;0.93;;
13439;SDS011;6792;57.698;11.946;2022-08-23T14:11:05;4.53;;;1.47;;
13439;SDS011;6792;57.698;11.946;2022-08-23T14:13:35;2.62;;;1.00;;
13439;SDS011;6792;57.698;11.946;2022-08-23T14:16:05;3.98;;;1.55;;
13439;SDS011;6792;57.698;11.946;2022-08-23T14:18:36;2.17;;;0.88;;
13439;SDS011;6792;57.698;11.946;2022-08-23T14:21:05;3.65;;;1.07;;
13439;SDS011;6792;57.698;11.946;2022-08-23T14:23:34;1.77;;;0.90;;
13439;SDS011;6792;57.698;11.946;2022-08-23T14:26:03;1.72;;;0.85;;
13439;SDS011;6792;57.698;11.946;2022-08-23T14:28:32;4.40;;;1.10;;
13439;SDS011;6792;57.698;11.946;2022-08-23T14:31:01;1.77;;;0.70;;
13439;SDS011;6792;57.698;11.946;2022-08-23T14:33:30;2.02;;;0.70;;
13439;SDS011;6792;57.698;11.946;2022-08-23T14:35:59;5.87;;;1.37;;
13439;SDS011;6792;57.698;11.946;2022-08-23T14:38:28;2.25;;;1.00;;
13439;SDS011;6792;57.698;11.946;2022-08-23T14:40:58;3.40;;;0.90;;
13439;SDS011;6792;57.698;11.946;2022-08-23T14:43:29;4.70;;;1.05;;
13439;SDS011;6792;57.698;11.946;2022-08-23T14:45:58;2.83;;;1.02;;
13439;SDS011;6792;57.698;11.946;2022-08-23T14:48:27;3.45;;;1.25;;
13439;SDS011;6792;57.698;11.946;2022-08-23T14:50:57;2.98;;;0.98;;
13439;SDS011;6792;57.698;11.946;2022-08-23T14:53:26;1.72;;;0.98;;
13439;SDS011;6792;57.698;11.946;2022-08-23T14:55:56;1.50;;;1.00;;
13439;SDS011;6792;57.698;11.946;2022-08-23T14:58:25;4.85;;;2.02;;
13439;SDS011;6792;57.698;11.946;2022-08-23T15:00:54;2.40;;;1.07;;
13439;SDS011;6792;57.698;11.946;2022-08-23T15:03:25;4.92;;;1.00;;
13439;SDS011;6792;57.698;11.946;2022-08-23T15:05:54;2.08;;;0.78;;
13439;SDS011;6792;57.698;11.946;2022-08-23T15:08:23;5.20;;;1.00;;
13439;SDS011;6792;57.698;11.946;2022-08-23T15:10:52;5.72;;;1.35;;
13439;SDS011;6792;57.698;11.946;2022-08-23T15:13:22;3.58;;;1.05;;
13439;SDS011;6792;57.698;11.946;2022-08-23T15:15:51;3.90;;;0.85;;
13439;SDS011;6792;57.698;11.946;2022-08-23T15:18:20;3.22;;;1.32;;
13439;SDS011;6792;57.698;11.946;2022-08-23T15:20:51;1.22;;;0.85;;
13439;SDS011;6792;57.698;11.946;2022-08-23T15:23:21;2.05;;;1.00;;
13439;SDS011;6792;57.698;11.946;2022-08-23T15:25:50;3.05;;;0.90;;
13439;SDS011;6792;57.698;11.946;2022-08-23T15:28:20;3.30;;;1.20;;
13439;SDS011;6792;57.698;11.946;2022-08-23T15:30:50;5.08;;;1.30;;